Terminal Aerodrome Forecast
Issued by NWS

Home | Current Version | Previous Version | Text Only | Print | Product List | Glossary On
Versions: 1 2 3 4 5 6 7 8 9 10 11 12 13 14 15 16 17
000
FTUS45 KTFX 280520
TAFGTF
TAF
KGTF 280520Z 2806/2906 VRB05KT P6SM VCSH SCT015 BKN050
     FM281600 32010KT P6SM VCSH SCT025 BKN040
     FM282300 02010KT P6SM BKN050
     FM290200 15008KT P6SM SCT050=

USA.gov is the U.S. government's official web portal to all federal, state and local government web resources and services.